メインページ
METAR-TAF:

METAR-TAF

空港 :

東京 / 羽田国際空港, 日本

東京国際空港

緯度: 35-33N, 経度: 139-47E, 海抜: 5m

現時点の気象観測

当レポートは26分前の01:30(UTC)に作成
東/南東の風 10kt
気温 23°C
湿度 78%
気圧 1006 hPa
視程10km以上
高度1500ftの雲はほとんどない
高度3000ftの千切れ雲あり
高度6000ftの千切れ雲あり

METAR: RJTT 260130Z 11010KT 9999 FEW015 BKN030 BKN060 23/19 Q1006 NOSIG RMK 1CU015 5SC030 7SC060 A2973

時間: 10:56 (01:56 UTC)


TAF: 見つかりません

4,000以上の空港の気象観測と天気予報(METAR報とTAF報)

利用可能な観測所は地図上に黄色い丸と赤い丸で示す。

丸の上にカーソルを重ねると観測所名を参照できる。

次にクリックすると気象観測と天気予報を参照できる。

マップの切り替え:黒色「×」印の緑ボタンをクリックして拡大、「-」印の緑ボタンをクリックして縮小、緑色の三角印をクリックして隣りの地図に切り替え


METAR-TAF: